createdAt,value
2022-11-22T00:01:28.617Z,15.00
2022-11-22T00:06:27.309Z,15.63
2022-11-22T00:11:26.032Z,14.10
2022-11-22T00:16:24.797Z,13.90
2022-11-22T00:21:23.528Z,15.23
2022-11-22T00:26:22.275Z,16.13
2022-11-22T00:31:21.070Z,17.30
2022-11-22T00:36:19.860Z,13.80
2022-11-22T00:41:18.687Z,13.15
2022-11-22T00:46:17.525Z,14.68
2022-11-22T00:51:16.273Z,14.43
2022-11-22T00:56:14.977Z,16.10
2022-11-22T01:01:13.785Z,14.80
2022-11-22T01:06:12.561Z,15.45
2022-11-22T01:11:11.949Z,16.70
2022-11-22T01:16:11.882Z,13.30
2022-11-22T01:21:10.687Z,13.85
2022-11-22T01:26:09.863Z,12.85
2022-11-22T01:31:09.430Z,12.25
2022-11-22T01:36:08.173Z,11.93
2022-11-22T01:41:06.890Z,12.07
2022-11-22T01:46:18.958Z,17.20
2022-11-22T01:51:24.845Z,13.55
2022-11-22T01:56:24.570Z,14.05
2022-11-22T02:01:23.361Z,13.57
2022-11-22T02:06:25.805Z,14.27
2022-11-22T02:11:28.400Z,14.75
2022-11-22T02:16:30.010Z,13.60
2022-11-22T02:21:29.312Z,13.52
2022-11-22T02:26:29.758Z,15.55
2022-11-22T02:31:46.720Z,13.75
2022-11-22T02:36:53.010Z,16.58
2022-11-22T02:41:52.198Z,13.52
2022-11-22T02:46:54.895Z,13.85
2022-11-22T02:51:53.837Z,16.10
2022-11-22T02:56:52.583Z,16.67
2022-11-22T03:01:51.438Z,15.20
2022-11-22T03:06:59.001Z,13.43
2022-11-22T03:11:58.307Z,15.75
2022-11-22T03:16:57.136Z,14.60
2022-11-22T03:21:55.948Z,14.38
2022-11-22T03:26:54.741Z,13.43
2022-11-22T03:31:53.649Z,14.82
2022-11-22T03:36:52.438Z,13.55
2022-11-22T03:41:51.188Z,15.40
2022-11-22T03:46:50.079Z,14.23
2022-11-22T03:51:48.889Z,15.05
2022-11-22T03:56:47.693Z,16.50
2022-11-22T04:01:46.529Z,16.83
2022-11-22T04:06:45.331Z,17.05
2022-11-22T04:11:44.089Z,14.75
2022-11-22T04:16:42.911Z,15.52
2022-11-22T04:21:41.600Z,16.95
2022-11-22T04:26:40.341Z,18.63
2022-11-22T04:31:57.524Z,16.58
2022-11-22T04:36:56.451Z,13.65
2022-11-22T04:42:15.368Z,14.95
2022-11-22T04:47:46.147Z,13.27
2022-11-22T04:52:54.955Z,12.25
2022-11-22T04:57:59.236Z,14.07
2022-11-22T05:02:59.354Z,13.18
2022-11-22T05:07:59.110Z,15.57
2022-11-22T05:12:57.934Z,11.93
2022-11-22T05:17:56.700Z,15.20
2022-11-22T05:23:13.685Z,14.82
2022-11-22T05:28:12.400Z,16.92
2022-11-22T05:33:11.095Z,36.13
2022-11-22T05:38:09.823Z,11.00
2022-11-22T05:43:08.616Z,10.57
2022-11-22T05:48:07.362Z,12.57
2022-11-22T05:53:06.098Z,9.95
2022-11-22T05:58:04.832Z,16.67
2022-11-22T06:03:04.319Z,12.68
2022-11-22T06:08:03.215Z,12.60
2022-11-22T06:13:01.977Z,10.65
2022-11-22T06:18:00.671Z,14.35
2022-11-22T06:22:59.558Z,13.90
2022-11-22T06:27:59.622Z,12.25
2022-11-22T06:32:58.741Z,14.20
2022-11-22T06:38:00.703Z,13.57
2022-11-22T06:42:59.838Z,15.30
2022-11-22T06:47:59.096Z,13.02
2022-11-22T06:52:57.797Z,14.82
2022-11-22T06:57:56.509Z,14.80
2022-11-22T07:02:55.268Z,14.98
2022-11-22T07:07:56.773Z,16.95
2022-11-22T07:12:59.654Z,13.75
2022-11-22T07:17:58.429Z,14.10
2022-11-22T07:22:57.130Z,15.98
2022-11-22T07:27:55.865Z,16.90
2022-11-22T07:32:54.673Z,13.80
2022-11-22T07:37:53.437Z,14.25
2022-11-22T07:42:58.143Z,13.80
2022-11-22T07:48:00.434Z,15.90
2022-11-22T07:52:59.935Z,14.52
2022-11-22T07:57:59.768Z,17.38
2022-11-22T08:02:59.418Z,17.80
2022-11-22T08:07:58.158Z,15.82
2022-11-22T08:13:00.423Z,17.33
2022-11-22T08:17:59.386Z,15.30
2022-11-22T08:22:58.168Z,16.67
2022-11-22T08:27:57.050Z,14.57
2022-11-22T08:32:55.876Z,14.68
2022-11-22T08:37:57.284Z,13.68
2022-11-22T08:42:56.631Z,14.75
2022-11-22T08:47:58.352Z,15.88
2022-11-22T08:52:57.238Z,13.95
2022-11-22T08:57:59.951Z,14.10
2022-11-22T09:02:58.797Z,14.15
2022-11-22T09:13:17.185Z,12.40
2022-11-22T09:18:16.077Z,16.88
2022-11-22T09:23:14.820Z,14.60
2022-11-22T09:28:13.532Z,13.93
2022-11-22T09:33:12.281Z,15.77
2022-11-22T09:38:11.121Z,12.77
2022-11-22T09:43:38.965Z,12.13
2022-11-22T09:48:49.670Z,11.13
2022-11-22T09:53:54.563Z,13.27
2022-11-22T09:59:00.664Z,13.48
2022-11-22T10:04:12.626Z,12.30
2022-11-22T10:09:45.374Z,11.52
2022-11-22T10:15:02.847Z,12.98
2022-11-22T10:20:20.928Z,13.63
2022-11-22T10:25:22.268Z,12.10
2022-11-22T10:30:21.756Z,11.65
2022-11-22T10:36:22.944Z,11.63
2022-11-22T10:41:45.848Z,11.57
2022-11-22T10:46:57.291Z,12.73
2022-11-22T10:51:59.331Z,13.88
2022-11-22T10:57:13.015Z,11.60
2022-11-22T11:02:43.600Z,13.13
2022-11-22T11:07:47.769Z,12.35
2022-11-22T11:12:53.249Z,15.20
2022-11-22T11:18:01.206Z,15.13
2022-11-22T11:23:14.120Z,14.90
2022-11-22T11:28:30.126Z,15.93
2022-11-22T11:33:30.650Z,16.90
2022-11-22T11:38:33.763Z,14.88
2022-11-22T11:43:32.504Z,15.85
2022-11-22T11:48:38.204Z,19.15
2022-11-22T11:53:37.765Z,16.27
2022-11-22T11:58:36.556Z,18.73
2022-11-22T12:03:35.463Z,21.23
2022-11-22T12:08:34.229Z,20.05
2022-11-22T12:19:14.451Z,21.80
2022-11-22T12:29:46.073Z,19.02
2022-11-22T12:34:53.240Z,17.55
2022-11-22T12:39:55.644Z,22.35
2022-11-22T12:45:02.137Z,22.23
2022-11-22T12:50:16.317Z,22.17
2022-11-22T12:55:22.883Z,18.83
2022-11-22T13:00:24.949Z,22.02
2022-11-22T13:05:31.329Z,22.73
2022-11-22T13:10:37.566Z,18.88
2022-11-22T13:15:40.238Z,21.00
2022-11-22T13:20:45.749Z,18.40
2022-11-22T13:26:10.350Z,19.92
2022-11-22T13:31:17.779Z,19.33
2022-11-22T13:36:31.759Z,19.73
2022-11-22T13:41:40.225Z,20.10
2022-11-22T13:46:57.107Z,17.88
2022-11-22T13:52:00.804Z,18.52
2022-11-22T13:57:05.413Z,18.23
2022-11-22T14:02:04.559Z,15.95
2022-11-22T14:07:21.243Z,17.70
2022-11-22T14:12:45.060Z,16.48
2022-11-22T14:18:00.737Z,15.85
2022-11-22T14:28:36.919Z,15.75
2022-11-22T14:33:36.483Z,18.95
2022-11-22T14:38:41.302Z,22.02
2022-11-22T14:43:42.015Z,23.42
2022-11-22T14:48:53.145Z,20.08
2022-11-22T14:53:56.174Z,21.13
2022-11-22T14:59:01.385Z,19.92
2022-11-22T15:09:15.254Z,19.95
2022-11-22T15:09:52.870Z,23.35
2022-11-22T15:14:58.219Z,20.20
2022-11-22T15:58:47.875Z,29.70
2022-11-22T16:03:59.110Z,29.25
2022-11-22T16:09:01.619Z,30.02
2022-11-22T16:14:00.561Z,32.45
2022-11-22T16:19:22.141Z,27.98
2022-11-22T16:24:20.899Z,31.65
2022-11-22T16:29:32.509Z,31.85
2022-11-22T16:34:31.704Z,37.00
2022-11-22T16:39:31.435Z,30.38
2022-11-22T16:44:30.542Z,28.30
2022-11-22T16:49:31.950Z,30.08
2022-11-22T16:54:32.648Z,32.53
2022-11-22T16:59:31.638Z,29.58
2022-11-22T17:04:37.882Z,33.85
2022-11-22T17:09:39.613Z,29.30
2022-11-22T17:14:38.370Z,34.22
2022-11-22T17:19:52.611Z,30.02
2022-11-22T17:24:52.287Z,28.88
2022-11-22T17:29:51.410Z,27.77
2022-11-22T17:34:50.366Z,29.13
2022-11-22T17:39:52.237Z,26.77
2022-11-22T17:44:50.986Z,26.48
2022-11-22T17:49:49.772Z,27.90
2022-11-22T17:54:48.477Z,17.10
2022-11-22T17:59:47.208Z,27.77
2022-11-22T18:04:46.014Z,27.77
2022-11-22T18:09:44.989Z,27.42
2022-11-22T18:14:44.919Z,27.23
2022-11-22T18:19:43.826Z,25.73
2022-11-22T18:24:42.584Z,26.63
2022-11-22T18:29:42.853Z,25.73
2022-11-22T18:34:42.604Z,27.10
2022-11-22T18:39:41.383Z,26.67
2022-11-22T18:44:40.236Z,29.42
2022-11-22T18:49:39.080Z,34.92
2022-11-22T18:54:37.833Z,27.25
2022-11-22T18:59:36.743Z,28.27
2022-11-22T19:04:35.696Z,26.20
2022-11-22T19:09:34.392Z,24.55
2022-11-22T19:14:33.460Z,24.77
2022-11-22T19:19:32.766Z,23.83
2022-11-22T19:24:34.378Z,24.48
2022-11-22T19:29:35.329Z,22.60
2022-11-22T19:34:34.408Z,22.75
2022-11-22T19:39:33.304Z,22.88
2022-11-22T19:44:32.147Z,20.80
2022-11-22T19:49:31.209Z,22.65
2022-11-22T19:54:30.245Z,24.10
2022-11-22T19:59:30.370Z,28.15
2022-11-22T20:04:29.383Z,26.92
2022-11-22T20:09:28.304Z,31.27
2022-11-22T20:14:27.320Z,32.00
2022-11-22T20:19:31.154Z,29.65
2022-11-22T20:24:33.138Z,30.08
2022-11-22T20:29:32.554Z,34.88
2022-11-22T20:34:33.695Z,33.80
2022-11-22T20:39:35.572Z,32.60
2022-11-22T20:44:34.683Z,28.15
2022-11-22T20:49:33.471Z,31.90
2022-11-22T20:54:32.512Z,30.63
2022-11-22T20:59:31.413Z,32.30
2022-11-22T21:04:30.480Z,33.05
2022-11-22T21:09:29.571Z,29.67
2022-11-22T21:14:28.409Z,29.95
2022-11-22T21:19:27.307Z,31.95
2022-11-22T21:24:26.028Z,32.00
2022-11-22T21:29:24.853Z,31.90
2022-11-22T21:34:23.589Z,26.42
2022-11-22T21:39:22.369Z,29.65
2022-11-22T21:44:21.111Z,31.13
2022-11-22T21:49:19.872Z,31.30
2022-11-22T21:54:18.741Z,29.95
2022-11-22T21:59:17.733Z,31.00
2022-11-22T22:04:16.688Z,24.67
2022-11-22T22:09:15.400Z,27.98
2022-11-22T22:14:14.978Z,29.98
2022-11-22T22:19:14.931Z,30.73
2022-11-22T22:24:13.938Z,26.80
2022-11-22T22:29:12.883Z,27.02
2022-11-22T22:34:11.726Z,27.23
2022-11-22T22:39:12.253Z,26.75
2022-11-22T22:44:11.463Z,27.17
2022-11-22T22:49:10.297Z,26.08
2022-11-22T22:54:10.747Z,24.33
2022-11-22T22:59:09.531Z,25.65
2022-11-22T23:04:08.914Z,27.58
2022-11-22T23:09:09.900Z,26.40
2022-11-22T23:14:08.765Z,27.92
2022-11-22T23:19:08.118Z,25.30
2022-11-22T23:24:08.306Z,25.60
2022-11-22T23:29:07.184Z,25.88
2022-11-22T23:34:06.325Z,26.83
2022-11-22T23:39:05.300Z,25.92
2022-11-22T23:44:04.399Z,26.30
2022-11-22T23:49:04.589Z,23.88
2022-11-22T23:54:05.789Z,28.90
2022-11-22T23:59:05.852Z,26.98
